sensor_id;sensor_type;location;lat;lon;timestamp;P1;durP1;ratioP1;P2;durP2;ratioP2
11986;SDS011;6053;51.382;6.768;2023-04-06T00:00:36;1.23;;;1.23;;
11986;SDS011;6053;51.382;6.768;2023-04-06T00:03:05;1.20;;;1.20;;
11986;SDS011;6053;51.382;6.768;2023-04-06T00:05:33;1.10;;;1.10;;
11986;SDS011;6053;51.382;6.768;2023-04-06T00:08:02;1.23;;;1.23;;
11986;SDS011;6053;51.382;6.768;2023-04-06T00:10:32;1.40;;;1.30;;
11986;SDS011;6053;51.382;6.768;2023-04-06T00:13:01;1.35;;;1.35;;
11986;SDS011;6053;51.382;6.768;2023-04-06T00:15:29;1.50;;;1.30;;
11986;SDS011;6053;51.382;6.768;2023-04-06T00:17:58;1.25;;;1.25;;
11986;SDS011;6053;51.382;6.768;2023-04-06T00:20:27;1.02;;;1.02;;
11986;SDS011;6053;51.382;6.768;2023-04-06T00:22:55;1.08;;;1.08;;
11986;SDS011;6053;51.382;6.768;2023-04-06T00:25:25;1.00;;;1.00;;
11986;SDS011;6053;51.382;6.768;2023-04-06T00:27:55;1.17;;;1.17;;
11986;SDS011;6053;51.382;6.768;2023-04-06T00:30:23;1.20;;;1.20;;
11986;SDS011;6053;51.382;6.768;2023-04-06T00:32:52;1.05;;;1.05;;
11986;SDS011;6053;51.382;6.768;2023-04-06T00:35:20;1.20;;;1.20;;
11986;SDS011;6053;51.382;6.768;2023-04-06T00:37:49;1.13;;;1.13;;
11986;SDS011;6053;51.382;6.768;2023-04-06T00:40:17;1.10;;;1.10;;
11986;SDS011;6053;51.382;6.768;2023-04-06T00:42:46;1.10;;;1.10;;
11986;SDS011;6053;51.382;6.768;2023-04-06T00:45:16;1.70;;;1.60;;
11986;SDS011;6053;51.382;6.768;2023-04-06T00:47:45;1.20;;;1.10;;
11986;SDS011;6053;51.382;6.768;2023-04-06T00:50:13;1.30;;;1.30;;
11986;SDS011;6053;51.382;6.768;2023-04-06T00:52:42;1.10;;;1.10;;
11986;SDS011;6053;51.382;6.768;2023-04-06T00:55:10;1.20;;;1.20;;
11986;SDS011;6053;51.382;6.768;2023-04-06T00:57:39;1.23;;;1.23;;
11986;SDS011;6053;51.382;6.768;2023-04-06T01:00:08;1.20;;;1.20;;
11986;SDS011;6053;51.382;6.768;2023-04-06T01:02:38;1.00;;;1.00;;
11986;SDS011;6053;51.382;6.768;2023-04-06T01:05:07;1.00;;;1.00;;
11986;SDS011;6053;51.382;6.768;2023-04-06T01:07:36;1.50;;;1.40;;
11986;SDS011;6053;51.382;6.768;2023-04-06T01:10:05;1.00;;;1.00;;
11986;SDS011;6053;51.382;6.768;2023-04-06T01:12:33;1.13;;;1.13;;
11986;SDS011;6053;51.382;6.768;2023-04-06T01:15:04;1.20;;;1.20;;
11986;SDS011;6053;51.382;6.768;2023-04-06T01:17:33;1.30;;;1.30;;
11986;SDS011;6053;51.382;6.768;2023-04-06T01:20:04;1.10;;;1.10;;
11986;SDS011;6053;51.382;6.768;2023-04-06T01:22:35;1.20;;;1.20;;
11986;SDS011;6053;51.382;6.768;2023-04-06T01:25:04;1.30;;;1.20;;
11986;SDS011;6053;51.382;6.768;2023-04-06T01:27:33;1.02;;;1.02;;
11986;SDS011;6053;51.382;6.768;2023-04-06T01:30:01;1.25;;;1.25;;
11986;SDS011;6053;51.382;6.768;2023-04-06T01:32:31;1.30;;;1.30;;
11986;SDS011;6053;51.382;6.768;2023-04-06T01:34:59;1.27;;;1.27;;
11986;SDS011;6053;51.382;6.768;2023-04-06T01:37:28;1.27;;;1.27;;
11986;SDS011;6053;51.382;6.768;2023-04-06T01:40:00;1.20;;;1.20;;
11986;SDS011;6053;51.382;6.768;2023-04-06T01:42:28;1.20;;;1.20;;
11986;SDS011;6053;51.382;6.768;2023-04-06T01:44:57;1.17;;;1.17;;
11986;SDS011;6053;51.382;6.768;2023-04-06T01:47:26;1.15;;;1.15;;
11986;SDS011;6053;51.382;6.768;2023-04-06T01:49:54;1.30;;;1.30;;
11986;SDS011;6053;51.382;6.768;2023-04-06T01:52:22;1.20;;;1.20;;
11986;SDS011;6053;51.382;6.768;2023-04-06T01:54:50;1.20;;;1.20;;
11986;SDS011;6053;51.382;6.768;2023-04-06T01:57:20;1.10;;;1.10;;
11986;SDS011;6053;51.382;6.768;2023-04-06T01:59:48;1.05;;;1.05;;
11986;SDS011;6053;51.382;6.768;2023-04-06T02:02:17;1.30;;;1.30;;
11986;SDS011;6053;51.382;6.768;2023-04-06T02:04:45;1.20;;;1.20;;
11986;SDS011;6053;51.382;6.768;2023-04-06T02:07:14;1.20;;;1.20;;
11986;SDS011;6053;51.382;6.768;2023-04-06T02:09:42;1.08;;;1.08;;
11986;SDS011;6053;51.382;6.768;2023-04-06T02:12:10;1.38;;;1.38;;
11986;SDS011;6053;51.382;6.768;2023-04-06T02:14:40;1.10;;;1.10;;
11986;SDS011;6053;51.382;6.768;2023-04-06T02:17:08;1.30;;;1.30;;
11986;SDS011;6053;51.382;6.768;2023-04-06T02:19:36;1.15;;;1.15;;
11986;SDS011;6053;51.382;6.768;2023-04-06T02:22:05;1.40;;;1.40;;
11986;SDS011;6053;51.382;6.768;2023-04-06T02:24:33;1.20;;;1.20;;
11986;SDS011;6053;51.382;6.768;2023-04-06T02:27:01;1.20;;;1.20;;
11986;SDS011;6053;51.382;6.768;2023-04-06T02:29:30;1.42;;;1.33;;
11986;SDS011;6053;51.382;6.768;2023-04-06T02:31:59;1.10;;;1.10;;
11986;SDS011;6053;51.382;6.768;2023-04-06T02:34:28;1.30;;;1.30;;
11986;SDS011;6053;51.382;6.768;2023-04-06T02:36:56;1.30;;;1.30;;
11986;SDS011;6053;51.382;6.768;2023-04-06T02:39:24;1.10;;;1.10;;
11986;SDS011;6053;51.382;6.768;2023-04-06T02:41:53;1.30;;;1.30;;
11986;SDS011;6053;51.382;6.768;2023-04-06T02:44:21;1.58;;;1.48;;
11986;SDS011;6053;51.382;6.768;2023-04-06T02:46:49;1.20;;;1.20;;
11986;SDS011;6053;51.382;6.768;2023-04-06T02:49:19;1.40;;;1.40;;
11986;SDS011;6053;51.382;6.768;2023-04-06T02:51:47;1.20;;;1.20;;
11986;SDS011;6053;51.382;6.768;2023-04-06T02:54:16;1.40;;;1.40;;
11986;SDS011;6053;51.382;6.768;2023-04-06T02:56:44;1.30;;;1.30;;
11986;SDS011;6053;51.382;6.768;2023-04-06T02:59:12;1.37;;;1.30;;
11986;SDS011;6053;51.382;6.768;2023-04-06T03:01:40;1.30;;;1.30;;
11986;SDS011;6053;51.382;6.768;2023-04-06T03:04:09;1.30;;;1.30;;
11986;SDS011;6053;51.382;6.768;2023-04-06T03:06:39;1.40;;;1.40;;
11986;SDS011;6053;51.382;6.768;2023-04-06T03:09:07;1.30;;;1.30;;
11986;SDS011;6053;51.382;6.768;2023-04-06T03:11:35;1.40;;;1.40;;
11986;SDS011;6053;51.382;6.768;2023-04-06T03:14:03;1.38;;;1.38;;
11986;SDS011;6053;51.382;6.768;2023-04-06T03:16:32;1.40;;;1.40;;
11986;SDS011;6053;51.382;6.768;2023-04-06T03:19:00;1.35;;;1.35;;
11986;SDS011;6053;51.382;6.768;2023-04-06T03:21:28;1.40;;;1.40;;
11986;SDS011;6053;51.382;6.768;2023-04-06T03:23:58;1.30;;;1.30;;
11986;SDS011;6053;51.382;6.768;2023-04-06T03:26:26;1.42;;;1.42;;
11986;SDS011;6053;51.382;6.768;2023-04-06T03:28:54;1.20;;;1.20;;
11986;SDS011;6053;51.382;6.768;2023-04-06T03:31:22;1.30;;;1.30;;
11986;SDS011;6053;51.382;6.768;2023-04-06T03:33:51;1.13;;;1.13;;
11986;SDS011;6053;51.382;6.768;2023-04-06T03:36:19;1.33;;;1.33;;
11986;SDS011;6053;51.382;6.768;2023-04-06T03:38:47;1.07;;;1.07;;
11986;SDS011;6053;51.382;6.768;2023-04-06T03:41:17;1.33;;;1.33;;
11986;SDS011;6053;51.382;6.768;2023-04-06T03:43:45;1.33;;;1.33;;
11986;SDS011;6053;51.382;6.768;2023-04-06T03:46:14;1.20;;;1.20;;
11986;SDS011;6053;51.382;6.768;2023-04-06T03:48:42;1.30;;;1.30;;
11986;SDS011;6053;51.382;6.768;2023-04-06T03:51:10;1.40;;;1.40;;
11986;SDS011;6053;51.382;6.768;2023-04-06T03:53:38;1.20;;;1.20;;
11986;SDS011;6053;51.382;6.768;2023-04-06T03:56:06;1.23;;;1.23;;
11986;SDS011;6053;51.382;6.768;2023-04-06T03:58:36;1.40;;;1.40;;
11986;SDS011;6053;51.382;6.768;2023-04-06T04:01:04;1.23;;;1.23;;
11986;SDS011;6053;51.382;6.768;2023-04-06T04:03:33;1.40;;;1.40;;
11986;SDS011;6053;51.382;6.768;2023-04-06T04:06:01;1.40;;;1.40;;
11986;SDS011;6053;51.382;6.768;2023-04-06T04:08:30;1.30;;;1.30;;
11986;SDS011;6053;51.382;6.768;2023-04-06T04:10:58;1.48;;;1.48;;
11986;SDS011;6053;51.382;6.768;2023-04-06T04:13:26;1.50;;;1.50;;
11986;SDS011;6053;51.382;6.768;2023-04-06T04:15:56;1.40;;;1.40;;
11986;SDS011;6053;51.382;6.768;2023-04-06T04:18:24;1.30;;;1.30;;
11986;SDS011;6053;51.382;6.768;2023-04-06T04:20:52;1.38;;;1.38;;
11986;SDS011;6053;51.382;6.768;2023-04-06T04:23:20;1.20;;;1.20;;
11986;SDS011;6053;51.382;6.768;2023-04-06T04:25:48;1.58;;;1.50;;
11986;SDS011;6053;51.382;6.768;2023-04-06T04:28:17;1.40;;;1.40;;
11986;SDS011;6053;51.382;6.768;2023-04-06T04:30:45;1.45;;;1.45;;
11986;SDS011;6053;51.382;6.768;2023-04-06T04:33:15;1.40;;;1.40;;
11986;SDS011;6053;51.382;6.768;2023-04-06T04:35:43;1.67;;;1.67;;
11986;SDS011;6053;51.382;6.768;2023-04-06T04:38:11;1.40;;;1.40;;
11986;SDS011;6053;51.382;6.768;2023-04-06T04:40:40;1.52;;;1.52;;
11986;SDS011;6053;51.382;6.768;2023-04-06T04:43:08;1.52;;;1.50;;
11986;SDS011;6053;51.382;6.768;2023-04-06T04:45:36;1.50;;;1.40;;
11986;SDS011;6053;51.382;6.768;2023-04-06T04:48:04;1.77;;;1.70;;
11986;SDS011;6053;51.382;6.768;2023-04-06T04:50:35;1.67;;;1.58;;
11986;SDS011;6053;51.382;6.768;2023-04-06T04:53:04;1.50;;;1.50;;
11986;SDS011;6053;51.382;6.768;2023-04-06T04:55:32;1.60;;;1.60;;
11986;SDS011;6053;51.382;6.768;2023-04-06T04:58:00;1.50;;;1.50;;
11986;SDS011;6053;51.382;6.768;2023-04-06T05:00:29;1.50;;;1.40;;
11986;SDS011;6053;51.382;6.768;2023-04-06T05:02:57;1.40;;;1.40;;
11986;SDS011;6053;51.382;6.768;2023-04-06T05:05:26;1.52;;;1.52;;
11986;SDS011;6053;51.382;6.768;2023-04-06T05:07:56;1.77;;;1.67;;
11986;SDS011;6053;51.382;6.768;2023-04-06T05:10:24;1.60;;;1.60;;
11986;SDS011;6053;51.382;6.768;2023-04-06T05:12:52;1.50;;;1.50;;
11986;SDS011;6053;51.382;6.768;2023-04-06T05:15:21;1.57;;;1.53;;
11986;SDS011;6053;51.382;6.768;2023-04-06T05:17:49;2.53;;;1.75;;
11986;SDS011;6053;51.382;6.768;2023-04-06T05:20:18;1.50;;;1.50;;
11986;SDS011;6053;51.382;6.768;2023-04-06T05:22:46;1.60;;;1.60;;
11986;SDS011;6053;51.382;6.768;2023-04-06T05:25:16;1.50;;;1.50;;
11986;SDS011;6053;51.382;6.768;2023-04-06T05:27:44;1.40;;;1.40;;
11986;SDS011;6053;51.382;6.768;2023-04-06T05:30:13;1.70;;;1.70;;
11986;SDS011;6053;51.382;6.768;2023-04-06T05:32:41;1.65;;;1.55;;
11986;SDS011;6053;51.382;6.768;2023-04-06T05:35:11;1.93;;;1.83;;
11986;SDS011;6053;51.382;6.768;2023-04-06T05:37:39;1.58;;;1.58;;
11986;SDS011;6053;51.382;6.768;2023-04-06T05:40:07;1.40;;;1.40;;
11986;SDS011;6053;51.382;6.768;2023-04-06T05:42:38;4.88;;;2.03;;
11986;SDS011;6053;51.382;6.768;2023-04-06T05:45:07;1.65;;;1.65;;
11986;SDS011;6053;51.382;6.768;2023-04-06T05:47:42;1.42;;;1.42;;
11986;SDS011;6053;51.382;6.768;2023-04-06T05:50:11;1.90;;;1.80;;
11986;SDS011;6053;51.382;6.768;2023-04-06T05:52:39;1.92;;;1.83;;
11986;SDS011;6053;51.382;6.768;2023-04-06T05:55:09;1.73;;;1.65;;
11986;SDS011;6053;51.382;6.768;2023-04-06T05:57:39;1.77;;;1.67;;
11986;SDS011;6053;51.382;6.768;2023-04-06T06:00:08;1.80;;;1.70;;
11986;SDS011;6053;51.382;6.768;2023-04-06T06:02:38;2.10;;;2.00;;
11986;SDS011;6053;51.382;6.768;2023-04-06T06:05:08;1.70;;;1.60;;
11986;SDS011;6053;51.382;6.768;2023-04-06T06:07:37;2.33;;;2.15;;
11986;SDS011;6053;51.382;6.768;2023-04-06T06:10:05;1.90;;;1.80;;
11986;SDS011;6053;51.382;6.768;2023-04-06T06:12:35;1.88;;;1.77;;
11986;SDS011;6053;51.382;6.768;2023-04-06T06:15:05;1.92;;;1.83;;
11986;SDS011;6053;51.382;6.768;2023-04-06T06:17:34;1.70;;;1.70;;
11986;SDS011;6053;51.382;6.768;2023-04-06T06:20:04;1.60;;;1.60;;
11986;SDS011;6053;51.382;6.768;2023-04-06T06:22:34;1.50;;;1.50;;
11986;SDS011;6053;51.382;6.768;2023-04-06T06:25:03;2.77;;;2.57;;
11986;SDS011;6053;51.382;6.768;2023-04-06T06:27:31;3.80;;;2.90;;
11986;SDS011;6053;51.382;6.768;2023-04-06T06:30:00;2.00;;;1.90;;
11986;SDS011;6053;51.382;6.768;2023-04-06T06:32:30;2.53;;;2.22;;
11986;SDS011;6053;51.382;6.768;2023-04-06T06:34:59;1.58;;;1.50;;
11986;SDS011;6053;51.382;6.768;2023-04-06T06:37:28;2.38;;;2.05;;
11986;SDS011;6053;51.382;6.768;2023-04-06T06:39:57;2.13;;;1.92;;
11986;SDS011;6053;51.382;6.768;2023-04-06T06:42:25;1.90;;;1.80;;
11986;SDS011;6053;51.382;6.768;2023-04-06T06:44:53;2.65;;;1.98;;
11986;SDS011;6053;51.382;6.768;2023-04-06T06:47:22;2.78;;;2.50;;
11986;SDS011;6053;51.382;6.768;2023-04-06T06:49:51;1.70;;;1.60;;
11986;SDS011;6053;51.382;6.768;2023-04-06T06:52:20;3.80;;;2.75;;
11986;SDS011;6053;51.382;6.768;2023-04-06T06:54:49;1.88;;;1.60;;
11986;SDS011;6053;51.382;6.768;2023-04-06T06:57:17;1.88;;;1.77;;
11986;SDS011;6053;51.382;6.768;2023-04-06T06:59:45;3.20;;;3.00;;
11986;SDS011;6053;51.382;6.768;2023-04-06T07:02:14;1.90;;;1.80;;
11986;SDS011;6053;51.382;6.768;2023-04-06T07:04:42;3.00;;;2.80;;
11986;SDS011;6053;51.382;6.768;2023-04-06T07:07:12;2.30;;;2.10;;
11986;SDS011;6053;51.382;6.768;2023-04-06T07:09:40;3.85;;;3.17;;
11986;SDS011;6053;51.382;6.768;2023-04-06T07:12:08;2.35;;;2.22;;
11986;SDS011;6053;51.382;6.768;2023-04-06T07:14:36;3.20;;;2.75;;
11986;SDS011;6053;51.382;6.768;2023-04-06T07:17:05;2.75;;;2.50;;
11986;SDS011;6053;51.382;6.768;2023-04-06T07:19:33;2.95;;;2.42;;
11986;SDS011;6053;51.382;6.768;2023-04-06T07:22:01;2.75;;;2.55;;
11986;SDS011;6053;51.382;6.768;2023-04-06T07:24:32;2.93;;;2.60;;
11986;SDS011;6053;51.382;6.768;2023-04-06T07:27:00;3.05;;;2.60;;
11986;SDS011;6053;51.382;6.768;2023-04-06T07:29:28;2.67;;;2.47;;
11986;SDS011;6053;51.382;6.768;2023-04-06T07:31:56;1.83;;;1.73;;
11986;SDS011;6053;51.382;6.768;2023-04-06T07:34:25;1.73;;;1.63;;
11986;SDS011;6053;51.382;6.768;2023-04-06T07:36:53;3.30;;;3.10;;
11986;SDS011;6053;51.382;6.768;2023-04-06T07:39:22;2.78;;;2.58;;
11986;SDS011;6053;51.382;6.768;2023-04-06T07:41:53;2.30;;;2.20;;
11986;SDS011;6053;51.382;6.768;2023-04-06T07:44:22;3.05;;;2.75;;
11986;SDS011;6053;51.382;6.768;2023-04-06T07:46:50;2.83;;;2.63;;
11986;SDS011;6053;51.382;6.768;2023-04-06T07:49:18;3.83;;;3.33;;
11986;SDS011;6053;51.382;6.768;2023-04-06T07:51:47;4.50;;;3.00;;
11986;SDS011;6053;51.382;6.768;2023-04-06T07:54:15;3.03;;;2.53;;
11986;SDS011;6053;51.382;6.768;2023-04-06T07:56:43;2.63;;;2.53;;
11986;SDS011;6053;51.382;6.768;2023-04-06T07:59:12;2.70;;;2.50;;
11986;SDS011;6053;51.382;6.768;2023-04-06T08:01:41;3.00;;;2.70;;
11986;SDS011;6053;51.382;6.768;2023-04-06T08:04:09;3.75;;;2.95;;
11986;SDS011;6053;51.382;6.768;2023-04-06T08:06:38;3.67;;;3.22;;
11986;SDS011;6053;51.382;6.768;2023-04-06T08:09:07;3.77;;;2.93;;
11986;SDS011;6053;51.382;6.768;2023-04-06T08:11:35;3.40;;;3.10;;
11986;SDS011;6053;51.382;6.768;2023-04-06T08:14:03;2.70;;;2.50;;
11986;SDS011;6053;51.382;6.768;2023-04-06T08:16:34;3.60;;;3.30;;
11986;SDS011;6053;51.382;6.768;2023-04-06T08:19:02;3.15;;;2.75;;
11986;SDS011;6053;51.382;6.768;2023-04-06T08:21:30;3.60;;;2.63;;
11986;SDS011;6053;51.382;6.768;2023-04-06T08:23:58;2.05;;;1.95;;
11986;SDS011;6053;51.382;6.768;2023-04-06T08:26:27;3.92;;;3.22;;
11986;SDS011;6053;51.382;6.768;2023-04-06T08:28:56;3.92;;;3.53;;
11986;SDS011;6053;51.382;6.768;2023-04-06T08:31:24;2.63;;;2.10;;
11986;SDS011;6053;51.382;6.768;2023-04-06T08:33:54;2.72;;;2.53;;
11986;SDS011;6053;51.382;6.768;2023-04-06T08:36:22;3.15;;;2.85;;
11986;SDS011;6053;51.382;6.768;2023-04-06T08:38:50;3.50;;;3.20;;
11986;SDS011;6053;51.382;6.768;2023-04-06T08:41:20;2.50;;;2.25;;
11986;SDS011;6053;51.382;6.768;2023-04-06T08:43:49;3.72;;;3.28;;
11986;SDS011;6053;51.382;6.768;2023-04-06T08:46:23;5.93;;;3.22;;
11986;SDS011;6053;51.382;6.768;2023-04-06T08:48:57;3.22;;;2.95;;
11986;SDS011;6053;51.382;6.768;2023-04-06T08:51:27;2.13;;;2.00;;
11986;SDS011;6053;51.382;6.768;2023-04-06T08:53:57;1.50;;;1.40;;
11986;SDS011;6053;51.382;6.768;2023-04-06T08:56:27;2.30;;;2.20;;
11986;SDS011;6053;51.382;6.768;2023-04-06T08:58:56;5.78;;;3.72;;
11986;SDS011;6053;51.382;6.768;2023-04-06T09:01:25;4.30;;;3.80;;
11986;SDS011;6053;51.382;6.768;2023-04-06T09:03:57;4.60;;;4.07;;
11986;SDS011;6053;51.382;6.768;2023-04-06T09:06:27;3.65;;;3.33;;
11986;SDS011;6053;51.382;6.768;2023-04-06T09:08:58;5.23;;;3.57;;
11986;SDS011;6053;51.382;6.768;2023-04-06T09:11:27;4.80;;;3.97;;
11986;SDS011;6053;51.382;6.768;2023-04-06T09:13:55;3.40;;;3.10;;
11986;SDS011;6053;51.382;6.768;2023-04-06T09:16:24;4.43;;;4.03;;
11986;SDS011;6053;51.382;6.768;2023-04-06T09:18:53;6.78;;;4.30;;
11986;SDS011;6053;51.382;6.768;2023-04-06T09:21:22;4.90;;;4.40;;
11986;SDS011;6053;51.382;6.768;2023-04-06T09:23:57;3.22;;;2.92;;
11986;SDS011;6053;51.382;6.768;2023-04-06T09:26:27;5.70;;;3.60;;
11986;SDS011;6053;51.382;6.768;2023-04-06T09:28:56;4.68;;;4.00;;
11986;SDS011;6053;51.382;6.768;2023-04-06T09:31:28;4.40;;;4.00;;
11986;SDS011;6053;51.382;6.768;2023-04-06T09:33:59;3.70;;;3.40;;
11986;SDS011;6053;51.382;6.768;2023-04-06T09:36:31;5.50;;;4.20;;
11986;SDS011;6053;51.382;6.768;2023-04-06T09:39:01;4.70;;;4.15;;
11986;SDS011;6053;51.382;6.768;2023-04-06T09:41:31;4.53;;;4.10;;
11986;SDS011;6053;51.382;6.768;2023-04-06T09:44:02;5.03;;;4.53;;
11986;SDS011;6053;51.382;6.768;2023-04-06T09:46:32;5.63;;;4.63;;
11986;SDS011;6053;51.382;6.768;2023-04-06T09:49:23;4.70;;;3.83;;
11986;SDS011;6053;51.382;6.768;2023-04-06T09:51:55;6.80;;;4.93;;
11986;SDS011;6053;51.382;6.768;2023-04-06T09:54:27;5.73;;;4.60;;
11986;SDS011;6053;51.382;6.768;2023-04-06T09:56:58;6.22;;;4.90;;
11986;SDS011;6053;51.382;6.768;2023-04-06T09:59:43;5.40;;;4.28;;
11986;SDS011;6053;51.382;6.768;2023-04-06T10:02:18;5.00;;;3.90;;
11986;SDS011;6053;51.382;6.768;2023-04-06T10:04:55;5.25;;;4.75;;
11986;SDS011;6053;51.382;6.768;2023-04-06T10:07:31;4.95;;;4.40;;
11986;SDS011;6053;51.382;6.768;2023-04-06T10:10:04;7.50;;;4.03;;
11986;SDS011;6053;51.382;6.768;2023-04-06T10:12:34;6.00;;;4.82;;
11986;SDS011;6053;51.382;6.768;2023-04-06T10:15:02;5.55;;;4.47;;
11986;SDS011;6053;51.382;6.768;2023-04-06T10:17:31;5.80;;;4.57;;
11986;SDS011;6053;51.382;6.768;2023-04-06T10:20:02;6.40;;;4.80;;
11986;SDS011;6053;51.382;6.768;2023-04-06T10:22:39;5.13;;;4.18;;
11986;SDS011;6053;51.382;6.768;2023-04-06T10:25:16;6.07;;;4.20;;
11986;SDS011;6053;51.382;6.768;2023-04-06T10:27:58;6.70;;;4.75;;
11986;SDS011;6053;51.382;6.768;2023-04-06T10:30:28;7.32;;;5.50;;
11986;SDS011;6053;51.382;6.768;2023-04-06T10:32:57;7.75;;;5.63;;
11986;SDS011;6053;51.382;6.768;2023-04-06T10:35:25;8.13;;;5.23;;
11986;SDS011;6053;51.382;6.768;2023-04-06T10:38:06;7.32;;;5.20;;
11986;SDS011;6053;51.382;6.768;2023-04-06T10:40:35;6.32;;;5.28;;
11986;SDS011;6053;51.382;6.768;2023-04-06T10:43:08;7.30;;;4.82;;
11986;SDS011;6053;51.382;6.768;2023-04-06T10:45:39;5.97;;;4.57;;
11986;SDS011;6053;51.382;6.768;2023-04-06T10:48:12;6.75;;;4.93;;
11986;SDS011;6053;51.382;6.768;2023-04-06T10:50:43;6.22;;;5.20;;
11986;SDS011;6053;51.382;6.768;2023-04-06T10:53:20;6.85;;;5.10;;
11986;SDS011;6053;51.382;6.768;2023-04-06T10:55:49;6.47;;;4.72;;
11986;SDS011;6053;51.382;6.768;2023-04-06T10:58:18;8.50;;;5.13;;
11986;SDS011;6053;51.382;6.768;2023-04-06T11:00:47;7.28;;;5.35;;
11986;SDS011;6053;51.382;6.768;2023-04-06T11:03:17;6.63;;;4.95;;
11986;SDS011;6053;51.382;6.768;2023-04-06T11:05:45;6.55;;;5.30;;
11986;SDS011;6053;51.382;6.768;2023-04-06T11:08:24;8.75;;;5.30;;
11986;SDS011;6053;51.382;6.768;2023-04-06T11:11:03;7.38;;;4.93;;
11986;SDS011;6053;51.382;6.768;2023-04-06T11:13:36;8.23;;;5.75;;
11986;SDS011;6053;51.382;6.768;2023-04-06T11:16:13;7.03;;;5.68;;
11986;SDS011;6053;51.382;6.768;2023-04-06T11:18:49;8.63;;;5.82;;
11986;SDS011;6053;51.382;6.768;2023-04-06T11:21:18;5.63;;;4.72;;
11986;SDS011;6053;51.382;6.768;2023-04-06T11:23:49;5.10;;;4.22;;
11986;SDS011;6053;51.382;6.768;2023-04-06T11:26:17;7.57;;;5.40;;
11986;SDS011;6053;51.382;6.768;2023-04-06T11:28:46;8.30;;;5.43;;
11986;SDS011;6053;51.382;6.768;2023-04-06T11:31:15;8.50;;;5.15;;
11986;SDS011;6053;51.382;6.768;2023-04-06T11:33:43;5.20;;;4.22;;
11986;SDS011;6053;51.382;6.768;2023-04-06T11:36:11;7.75;;;5.50;;
11986;SDS011;6053;51.382;6.768;2023-04-06T11:38:42;6.72;;;4.80;;
11986;SDS011;6053;51.382;6.768;2023-04-06T11:41:12;7.13;;;5.35;;
11986;SDS011;6053;51.382;6.768;2023-04-06T11:43:45;9.45;;;4.85;;
11986;SDS011;6053;51.382;6.768;2023-04-06T11:46:16;6.10;;;5.47;;
11986;SDS011;6053;51.382;6.768;2023-04-06T11:48:46;7.78;;;4.85;;
11986;SDS011;6053;51.382;6.768;2023-04-06T11:51:21;8.52;;;5.28;;
11986;SDS011;6053;51.382;6.768;2023-04-06T11:53:50;6.88;;;4.50;;
11986;SDS011;6053;51.382;6.768;2023-04-06T11:56:26;5.38;;;4.28;;
11986;SDS011;6053;51.382;6.768;2023-04-06T11:58:56;6.35;;;4.70;;
11986;SDS011;6053;51.382;6.768;2023-04-06T12:01:26;8.43;;;5.47;;
11986;SDS011;6053;51.382;6.768;2023-04-06T12:03:55;5.95;;;4.32;;
11986;SDS011;6053;51.382;6.768;2023-04-06T12:06:23;7.80;;;5.07;;
11986;SDS011;6053;51.382;6.768;2023-04-06T12:08:52;9.48;;;5.25;;
11986;SDS011;6053;51.382;6.768;2023-04-06T12:11:20;7.07;;;5.25;;
11986;SDS011;6053;51.382;6.768;2023-04-06T12:13:50;5.93;;;5.07;;
11986;SDS011;6053;51.382;6.768;2023-04-06T12:16:18;9.27;;;4.75;;
11986;SDS011;6053;51.382;6.768;2023-04-06T12:18:46;5.47;;;4.67;;
11986;SDS011;6053;51.382;6.768;2023-04-06T12:21:14;5.95;;;4.50;;
11986;SDS011;6053;51.382;6.768;2023-04-06T12:23:43;7.63;;;5.03;;
11986;SDS011;6053;51.382;6.768;2023-04-06T12:26:11;4.45;;;3.30;;
11986;SDS011;6053;51.382;6.768;2023-04-06T12:28:39;6.65;;;4.57;;
11986;SDS011;6053;51.382;6.768;2023-04-06T12:31:13;5.00;;;4.23;;
11986;SDS011;6053;51.382;6.768;2023-04-06T12:33:43;7.20;;;5.57;;
11986;SDS011;6053;51.382;6.768;2023-04-06T12:36:14;8.32;;;5.20;;
11986;SDS011;6053;51.382;6.768;2023-04-06T12:38:46;7.10;;;5.20;;
11986;SDS011;6053;51.382;6.768;2023-04-06T12:41:15;7.35;;;5.60;;
11986;SDS011;6053;51.382;6.768;2023-04-06T12:43:44;7.13;;;5.35;;
11986;SDS011;6053;51.382;6.768;2023-04-06T12:46:14;5.93;;;4.82;;
11986;SDS011;6053;51.382;6.768;2023-04-06T12:48:42;7.20;;;5.53;;
11986;SDS011;6053;51.382;6.768;2023-04-06T12:51:11;5.22;;;3.88;;
11986;SDS011;6053;51.382;6.768;2023-04-06T12:53:39;6.47;;;4.65;;
11986;SDS011;6053;51.382;6.768;2023-04-06T12:56:11;5.28;;;4.53;;
11986;SDS011;6053;51.382;6.768;2023-04-06T12:58:41;3.72;;;3.40;;
11986;SDS011;6053;51.382;6.768;2023-04-06T13:01:10;2.58;;;2.42;;
11986;SDS011;6053;51.382;6.768;2023-04-06T13:03:40;3.83;;;3.47;;
11986;SDS011;6053;51.382;6.768;2023-04-06T13:06:09;4.03;;;3.38;;
11986;SDS011;6053;51.382;6.768;2023-04-06T13:08:39;3.50;;;3.20;;
11986;SDS011;6053;51.382;6.768;2023-04-06T13:11:07;4.50;;;3.20;;
11986;SDS011;6053;51.382;6.768;2023-04-06T13:13:36;3.08;;;2.72;;
11986;SDS011;6053;51.382;6.768;2023-04-06T13:16:05;3.40;;;3.10;;
11986;SDS011;6053;51.382;6.768;2023-04-06T13:18:35;3.38;;;2.80;;
11986;SDS011;6053;51.382;6.768;2023-04-06T13:21:06;3.05;;;2.63;;
11986;SDS011;6053;51.382;6.768;2023-04-06T13:23:35;3.17;;;2.75;;
11986;SDS011;6053;51.382;6.768;2023-04-06T13:26:04;2.75;;;2.55;;
11986;SDS011;6053;51.382;6.768;2023-04-06T13:28:34;3.00;;;2.75;;
11986;SDS011;6053;51.382;6.768;2023-04-06T13:31:04;3.28;;;2.97;;
11986;SDS011;6053;51.382;6.768;2023-04-06T13:33:33;2.97;;;2.47;;
11986;SDS011;6053;51.382;6.768;2023-04-06T13:36:01;2.72;;;2.53;;
11986;SDS011;6053;51.382;6.768;2023-04-06T13:38:32;3.50;;;3.10;;
11986;SDS011;6053;51.382;6.768;2023-04-06T13:41:00;3.57;;;2.90;;
11986;SDS011;6053;51.382;6.768;2023-04-06T13:43:29;3.33;;;2.83;;
11986;SDS011;6053;51.382;6.768;2023-04-06T13:45:57;3.57;;;3.10;;
11986;SDS011;6053;51.382;6.768;2023-04-06T13:48:27;4.70;;;3.00;;
11986;SDS011;6053;51.382;6.768;2023-04-06T13:50:55;2.47;;;2.17;;
11986;SDS011;6053;51.382;6.768;2023-04-06T13:53:24;4.22;;;3.55;;
11986;SDS011;6053;51.382;6.768;2023-04-06T13:55:54;3.63;;;3.30;;
11986;SDS011;6053;51.382;6.768;2023-04-06T13:58:23;2.10;;;2.00;;
11986;SDS011;6053;51.382;6.768;2023-04-06T14:00:51;2.53;;;2.33;;
11986;SDS011;6053;51.382;6.768;2023-04-06T14:03:20;1.30;;;1.27;;
11986;SDS011;6053;51.382;6.768;2023-04-06T14:05:49;3.30;;;3.00;;
11986;SDS011;6053;51.382;6.768;2023-04-06T14:08:18;1.88;;;1.75;;
11986;SDS011;6053;51.382;6.768;2023-04-06T14:10:47;2.10;;;1.90;;
11986;SDS011;6053;51.382;6.768;2023-04-06T14:13:16;2.45;;;2.25;;
11986;SDS011;6053;51.382;6.768;2023-04-06T14:15:45;3.13;;;2.92;;
11986;SDS011;6053;51.382;6.768;2023-04-06T14:18:13;3.83;;;3.15;;
11986;SDS011;6053;51.382;6.768;2023-04-06T14:20:42;1.98;;;1.88;;
11986;SDS011;6053;51.382;6.768;2023-04-06T14:23:11;2.33;;;2.10;;
11986;SDS011;6053;51.382;6.768;2023-04-06T14:25:39;2.47;;;2.28;;
11986;SDS011;6053;51.382;6.768;2023-04-06T14:28:07;2.78;;;2.55;;
11986;SDS011;6053;51.382;6.768;2023-04-06T14:30:37;2.57;;;2.37;;
11986;SDS011;6053;51.382;6.768;2023-04-06T14:33:05;2.60;;;2.40;;
11986;SDS011;6053;51.382;6.768;2023-04-06T14:35:34;3.28;;;2.42;;
11986;SDS011;6053;51.382;6.768;2023-04-06T14:38:06;2.70;;;2.50;;
11986;SDS011;6053;51.382;6.768;2023-04-06T14:40:34;3.10;;;2.80;;
11986;SDS011;6053;51.382;6.768;2023-04-06T14:43:03;3.55;;;2.50;;
11986;SDS011;6053;51.382;6.768;2023-04-06T14:45:32;1.85;;;1.75;;
11986;SDS011;6053;51.382;6.768;2023-04-06T14:48:04;2.58;;;2.38;;
11986;SDS011;6053;51.382;6.768;2023-04-06T14:50:33;2.30;;;2.15;;
11986;SDS011;6053;51.382;6.768;2023-04-06T14:53:01;2.03;;;1.92;;
11986;SDS011;6053;51.382;6.768;2023-04-06T14:55:30;2.45;;;2.25;;
11986;SDS011;6053;51.382;6.768;2023-04-06T14:57:58;3.40;;;3.10;;
11986;SDS011;6053;51.382;6.768;2023-04-06T15:00:26;2.60;;;2.40;;
11986;SDS011;6053;51.382;6.768;2023-04-06T15:02:54;3.40;;;3.10;;
11986;SDS011;6053;51.382;6.768;2023-04-06T15:05:24;3.05;;;2.63;;
11986;SDS011;6053;51.382;6.768;2023-04-06T15:07:53;2.80;;;2.60;;
11986;SDS011;6053;51.382;6.768;2023-04-06T15:10:21;2.95;;;2.75;;
11986;SDS011;6053;51.382;6.768;2023-04-06T15:12:49;3.30;;;3.00;;